createdAt,value
2017-08-13T00:01:00.509Z,0
2017-08-13T00:02:11.037Z,0
2017-08-13T00:03:21.736Z,0
2017-08-13T00:04:32.253Z,0
2017-08-13T00:05:42.727Z,0
2017-08-13T00:06:53.201Z,0
2017-08-13T00:08:03.672Z,0
2017-08-13T00:09:14.360Z,0
2017-08-13T00:10:24.846Z,0
2017-08-13T00:11:35.346Z,0
2017-08-13T00:12:45.492Z,0
2017-08-13T00:13:55.981Z,0
2017-08-13T00:15:06.749Z,0
2017-08-13T00:16:16.926Z,0
2017-08-13T00:17:27.362Z,0
2017-08-13T00:18:37.383Z,0
2017-08-13T00:19:47.395Z,0
2017-08-13T00:20:58.102Z,0
2017-08-13T00:22:08.669Z,0
2017-08-13T00:23:19.181Z,0
2017-08-13T00:24:29.629Z,0
2017-08-13T00:25:40.095Z,0
2017-08-13T00:26:50.952Z,0
2017-08-13T00:28:01.402Z,0
2017-08-13T00:29:11.489Z,0
2017-08-13T00:30:21.987Z,0
2017-08-13T00:31:32.452Z,0
2017-08-13T00:32:43.233Z,0
2017-08-13T00:33:53.797Z,0
2017-08-13T00:35:04.329Z,0
2017-08-13T00:36:14.788Z,0
2017-08-13T00:37:25.329Z,0
2017-08-13T00:38:36.135Z,0
2017-08-13T00:39:46.732Z,0
2017-08-13T00:40:57.188Z,0
2017-08-13T00:42:07.717Z,0
2017-08-13T00:43:17.885Z,0
2017-08-13T00:44:28.722Z,0
2017-08-13T00:45:39.159Z,0
2017-08-13T00:46:49.305Z,0
2017-08-13T00:47:59.813Z,0
2017-08-13T00:49:10.285Z,0
2017-08-13T00:50:20.983Z,0
2017-08-13T00:51:31.465Z,0
2017-08-13T00:52:41.942Z,0
2017-08-13T00:53:52.403Z,0
2017-08-13T00:55:02.873Z,0
2017-08-13T00:56:13.595Z,0
2017-08-13T00:57:24.107Z,0
2017-08-13T00:58:34.566Z,0
2017-08-13T00:59:45.031Z,0
2017-08-13T01:00:55.515Z,0
2017-08-13T01:02:06.127Z,0
2017-08-13T01:03:16.691Z,0
2017-08-13T01:04:26.569Z,0
2017-08-13T01:05:37.196Z,0
2017-08-13T01:06:47.732Z,0
2017-08-13T01:07:58.461Z,0
2017-08-13T01:09:08.652Z,0
2017-08-13T01:10:19.130Z,0
2017-08-13T01:11:29.664Z,0
2017-08-13T01:12:40.118Z,0
2017-08-13T01:13:50.831Z,0
2017-08-13T01:15:01.001Z,0
2017-08-13T01:16:11.469Z,0
2017-08-13T01:17:21.944Z,0
2017-08-13T01:18:32.540Z,0
2017-08-13T01:19:43.300Z,0
2017-08-13T01:20:53.766Z,0
2017-08-13T01:22:04.208Z,0
2017-08-13T01:23:14.780Z,0
2017-08-13T01:24:25.236Z,0
2017-08-13T01:25:35.947Z,0
2017-08-13T01:26:46.449Z,0
2017-08-13T01:27:56.899Z,0
2017-08-13T01:29:07.033Z,0
2017-08-13T01:30:17.510Z,0
2017-08-13T01:31:28.230Z,0
2017-08-13T01:32:38.683Z,0
2017-08-13T01:33:49.363Z,0
2017-08-13T01:34:59.861Z,0
2017-08-13T01:36:10.538Z,0
2017-08-13T01:37:21.261Z,0
2017-08-13T01:38:31.330Z,0
2017-08-13T01:39:42.913Z,0
2017-08-13T01:40:52.933Z,0
2017-08-13T01:42:03.388Z,0
2017-08-13T01:43:14.097Z,0
2017-08-13T01:44:24.579Z,0
2017-08-13T01:45:35.015Z,0
2017-08-13T01:46:45.046Z,0
2017-08-13T01:47:55.508Z,0
2017-08-13T01:49:06.217Z,0
2017-08-13T01:50:16.676Z,0
2017-08-13T01:51:27.664Z,0
2017-08-13T01:52:38.208Z,0
2017-08-13T01:53:48.696Z,0
2017-08-13T01:54:59.100Z,0
2017-08-13T01:56:09.172Z,0
2017-08-13T01:57:19.643Z,0
2017-08-13T01:58:29.799Z,0
2017-08-13T01:59:40.409Z,0
2017-08-13T02:00:51.255Z,0
2017-08-13T02:02:01.380Z,0
2017-08-13T02:03:11.882Z,0
2017-08-13T02:04:22.352Z,0
2017-08-13T02:05:32.802Z,0
2017-08-13T02:06:43.501Z,0
2017-08-13T02:07:53.990Z,0
2017-08-13T02:09:04.129Z,0
2017-08-13T02:10:14.590Z,0
2017-08-13T02:11:25.127Z,0
2017-08-13T02:12:35.914Z,0
2017-08-13T02:13:46.080Z,0
2017-08-13T02:15:28.623Z,0
2017-08-13T02:16:39.099Z,0
2017-08-13T02:17:49.508Z,0
2017-08-13T02:18:59.978Z,0
2017-08-13T02:20:10.545Z,0
2017-08-13T02:21:21.024Z,0
2017-08-13T02:22:31.494Z,0
2017-08-13T02:23:42.405Z,0
2017-08-13T02:24:52.526Z,0
2017-08-13T02:26:02.696Z,0
2017-08-13T02:27:13.168Z,0
2017-08-13T02:28:23.730Z,0
2017-08-13T02:29:34.470Z,0
2017-08-13T02:30:44.929Z,0
2017-08-13T02:31:55.425Z,0
2017-08-13T02:33:06.855Z,0
2017-08-13T02:34:17.042Z,0
2017-08-13T02:35:27.765Z,0
2017-08-13T02:36:38.214Z,0
2017-08-13T02:37:48.492Z,0
2017-08-13T02:38:59.020Z,0
2017-08-13T02:40:09.151Z,0
2017-08-13T02:41:19.874Z,0
2017-08-13T02:42:30.353Z,0
2017-08-13T02:43:40.793Z,0
2017-08-13T02:44:51.326Z,0
2017-08-13T02:46:01.780Z,0
2017-08-13T02:47:12.499Z,0
2017-08-13T02:48:22.506Z,0
2017-08-13T02:49:32.671Z,0
2017-08-13T02:50:43.127Z,0
2017-08-13T02:51:53.277Z,0
2017-08-13T02:53:03.999Z,0
2017-08-13T02:54:14.488Z,0
2017-08-13T02:55:24.941Z,0
2017-08-13T02:56:35.416Z,0
2017-08-13T02:57:45.870Z,0
2017-08-13T02:58:56.349Z,0
2017-08-13T03:00:06.812Z,0
2017-08-13T03:01:17.307Z,0
2017-08-13T03:02:27.761Z,0
2017-08-13T03:03:37.936Z,0
2017-08-13T03:04:48.344Z,0
2017-08-13T03:05:58.484Z,0
2017-08-13T03:07:08.986Z,0
2017-08-13T03:08:19.448Z,0
2017-08-13T03:09:29.884Z,0
2017-08-13T03:10:40.600Z,0
2017-08-13T03:11:51.086Z,0
2017-08-13T03:13:01.675Z,0
2017-08-13T03:14:12.156Z,0
2017-08-13T03:15:22.450Z,0
2017-08-13T03:16:33.195Z,0
2017-08-13T03:17:43.764Z,0
2017-08-13T03:18:54.235Z,0
2017-08-13T03:20:04.694Z,0
2017-08-13T03:21:15.139Z,0
2017-08-13T03:22:25.880Z,0
2017-08-13T03:23:36.385Z,0
2017-08-13T03:24:45.898Z,0
2017-08-13T03:25:56.353Z,0
2017-08-13T03:27:06.817Z,0
2017-08-13T03:28:17.079Z,0
2017-08-13T03:29:27.581Z,0
2017-08-13T03:30:37.736Z,0
2017-08-13T03:31:48.211Z,0
2017-08-13T03:32:58.911Z,0
2017-08-13T03:34:09.599Z,0
2017-08-13T03:35:20.047Z,0
2017-08-13T03:36:30.503Z,0
2017-08-13T03:37:41.059Z,0
2017-08-13T03:38:51.516Z,0
2017-08-13T03:40:02.280Z,0
2017-08-13T03:41:12.740Z,0
2017-08-13T03:42:23.205Z,0
2017-08-13T03:43:33.672Z,0
2017-08-13T03:44:44.138Z,0
2017-08-13T03:45:54.883Z,0
2017-08-13T03:47:05.384Z,0
2017-08-13T03:48:15.857Z,0
2017-08-13T03:49:26.296Z,0
2017-08-13T03:50:36.016Z,0
2017-08-13T03:51:46.395Z,0
2017-08-13T03:52:56.846Z,0
2017-08-13T03:54:07.178Z,0
2017-08-13T03:55:17.675Z,0
2017-08-13T03:56:28.136Z,5
2017-08-13T03:57:38.832Z,5
2017-08-13T03:58:49.286Z,5
2017-08-13T03:59:59.799Z,5
2017-08-13T04:01:10.362Z,5
2017-08-13T04:02:20.514Z,10
2017-08-13T04:03:31.245Z,10
2017-08-13T04:04:41.933Z,10
2017-08-13T04:05:52.401Z,10
2017-08-13T04:07:02.858Z,10
2017-08-13T04:08:13.348Z,15
2017-08-13T04:09:24.333Z,15
2017-08-13T04:10:34.357Z,15
2017-08-13T04:11:44.847Z,20
2017-08-13T04:12:55.303Z,20
2017-08-13T04:14:05.789Z,25
2017-08-13T04:15:16.538Z,25
2017-08-13T04:16:26.980Z,30
2017-08-13T04:17:37.448Z,30
2017-08-13T04:18:47.971Z,30
2017-08-13T04:19:58.509Z,30
2017-08-13T04:21:09.208Z,30
2017-08-13T04:22:19.707Z,35
2017-08-13T04:23:30.223Z,35
2017-08-13T04:24:40.679Z,35
2017-08-13T04:25:51.162Z,35
2017-08-13T04:27:01.122Z,35
2017-08-13T04:28:11.579Z,40
2017-08-13T04:29:22.212Z,45
2017-08-13T04:30:32.723Z,45
2017-08-13T04:31:43.154Z,50
2017-08-13T04:32:54.147Z,50
2017-08-13T04:34:04.621Z,50
2017-08-13T04:35:14.810Z,50
2017-08-13T04:36:25.510Z,55
2017-08-13T04:37:35.961Z,55
2017-08-13T04:38:46.394Z,55
2017-08-13T04:39:56.962Z,55
2017-08-13T04:41:07.422Z,60
2017-08-13T04:42:17.576Z,60
2017-08-13T04:43:28.061Z,60
2017-08-13T04:44:38.443Z,65
2017-08-13T04:45:48.924Z,75
2017-08-13T04:46:59.391Z,80
2017-08-13T04:48:09.566Z,85
2017-08-13T04:49:20.041Z,90
2017-08-13T04:50:30.812Z,95
2017-08-13T04:51:41.288Z,95
2017-08-13T04:52:51.760Z,90
2017-08-13T04:54:02.197Z,90
2017-08-13T04:55:12.722Z,85
2017-08-13T04:56:23.124Z,85
2017-08-13T04:57:33.721Z,85
2017-08-13T04:58:44.239Z,90
2017-08-13T04:59:54.699Z,90
2017-08-13T05:01:05.185Z,100
2017-08-13T05:02:15.589Z,110
2017-08-13T05:03:26.054Z,115
2017-08-13T05:04:36.509Z,130
2017-08-13T05:05:46.975Z,130
2017-08-13T05:06:57.101Z,130
2017-08-13T05:08:07.787Z,125
2017-08-13T05:09:18.247Z,125
2017-08-13T05:10:28.696Z,130
2017-08-13T05:11:39.332Z,135
2017-08-13T05:12:49.519Z,130
2017-08-13T05:13:59.785Z,130
2017-08-13T05:15:10.308Z,125
2017-08-13T05:16:20.805Z,130
2017-08-13T05:17:31.295Z,130
2017-08-13T05:18:41.116Z,130
2017-08-13T05:19:51.835Z,130
2017-08-13T05:21:02.217Z,135
2017-08-13T05:22:12.709Z,130
2017-08-13T05:23:23.162Z,125
2017-08-13T05:24:33.712Z,130
2017-08-13T05:25:44.484Z,140
2017-08-13T05:26:54.635Z,140
2017-08-13T05:28:04.780Z,140
2017-08-13T05:29:15.221Z,140
2017-08-13T05:30:25.840Z,145
2017-08-13T05:31:36.582Z,150
2017-08-13T05:32:47.257Z,150
2017-08-13T05:33:57.267Z,150
2017-08-13T05:35:07.739Z,160
2017-08-13T05:36:18.287Z,165
2017-08-13T05:37:29.019Z,165
2017-08-13T05:38:39.268Z,165
2017-08-13T05:39:50.729Z,160
2017-08-13T05:41:00.419Z,155
2017-08-13T05:42:11.073Z,155
2017-08-13T05:43:21.797Z,160
2017-08-13T05:44:32.046Z,160
2017-08-13T05:45:42.616Z,160
2017-08-13T05:46:53.097Z,160
2017-08-13T05:48:03.272Z,165
2017-08-13T05:49:13.967Z,165
2017-08-13T05:50:24.446Z,165
2017-08-13T05:51:34.710Z,165
2017-08-13T05:52:44.845Z,170
2017-08-13T05:53:55.292Z,170
2017-08-13T05:55:06.029Z,175
2017-08-13T05:56:16.491Z,175
2017-08-13T05:57:26.973Z,180
2017-08-13T05:58:37.438Z,180
2017-08-13T05:59:47.885Z,180
2017-08-13T06:00:58.591Z,180
2017-08-13T06:02:09.044Z,180
2017-08-13T06:03:19.204Z,180
2017-08-13T06:04:29.472Z,185
2017-08-13T06:05:39.905Z,180
2017-08-13T06:06:50.634Z,185
2017-08-13T06:08:01.115Z,180
2017-08-13T06:09:11.575Z,180
2017-08-13T06:10:22.271Z,185
2017-08-13T06:11:32.807Z,185
2017-08-13T06:12:43.649Z,185
2017-08-13T06:13:54.151Z,185
2017-08-13T06:15:04.601Z,185
2017-08-13T06:16:15.096Z,185
2017-08-13T06:17:25.543Z,185
2017-08-13T06:18:36.299Z,185
2017-08-13T06:19:46.806Z,185
2017-08-13T06:20:57.249Z,185
2017-08-13T06:22:07.712Z,185
2017-08-13T06:23:17.896Z,185
2017-08-13T06:24:27.959Z,185
2017-08-13T06:25:38.436Z,185
2017-08-13T06:26:48.549Z,190
2017-08-13T06:27:59.000Z,190
2017-08-13T06:29:09.529Z,190
2017-08-13T06:30:19.915Z,190
2017-08-13T06:31:30.419Z,190
2017-08-13T06:32:40.646Z,190
2017-08-13T06:33:51.113Z,195
2017-08-13T06:35:01.505Z,195
2017-08-13T06:36:11.854Z,195
2017-08-13T06:37:22.311Z,195
2017-08-13T06:38:32.767Z,190
2017-08-13T06:39:43.243Z,190
2017-08-13T06:40:53.336Z,190
2017-08-13T06:42:03.742Z,195
2017-08-13T06:43:14.183Z,195
2017-08-13T06:44:24.652Z,195
2017-08-13T06:45:35.136Z,215
2017-08-13T06:46:45.621Z,245
2017-08-13T06:47:56.347Z,230
2017-08-13T06:49:06.791Z,205
2017-08-13T06:50:16.942Z,200
2017-08-13T06:51:27.340Z,210
2017-08-13T06:52:37.812Z,205
2017-08-13T06:53:48.552Z,215
2017-08-13T06:54:59.678Z,220
2017-08-13T06:56:10.198Z,245
2017-08-13T06:57:20.345Z,230
2017-08-13T06:58:30.605Z,265
2017-08-13T06:59:41.354Z,330
2017-08-13T07:00:51.804Z,385
2017-08-13T07:02:02.318Z,395
2017-08-13T07:03:12.821Z,380
2017-08-13T07:04:23.286Z,375
2017-08-13T07:05:34.010Z,355
2017-08-13T07:06:44.471Z,300
2017-08-13T07:07:54.962Z,270
2017-08-13T07:09:05.461Z,235
2017-08-13T07:10:15.611Z,235
2017-08-13T07:11:25.989Z,235
2017-08-13T07:12:36.554Z,220
2017-08-13T07:13:47.229Z,225
2017-08-13T07:14:57.686Z,225
2017-08-13T07:16:08.150Z,225
2017-08-13T07:17:18.902Z,230
2017-08-13T07:18:29.365Z,235
2017-08-13T07:19:39.888Z,260
2017-08-13T07:20:50.379Z,285
2017-08-13T07:22:00.857Z,310
2017-08-13T07:23:11.575Z,320
2017-08-13T07:24:22.061Z,295
2017-08-13T07:25:32.537Z,280
2017-08-13T07:26:43.015Z,265
2017-08-13T07:27:53.157Z,260
2017-08-13T07:29:03.107Z,265
2017-08-13T07:30:13.589Z,255
2017-08-13T07:31:24.119Z,255
2017-08-13T07:32:34.608Z,265
2017-08-13T07:33:44.813Z,265
2017-08-13T07:34:55.342Z,270
2017-08-13T07:36:05.901Z,295
2017-08-13T07:37:16.368Z,295
2017-08-13T07:38:26.527Z,300
2017-08-13T07:39:36.677Z,305
2017-08-13T07:40:47.411Z,295
2017-08-13T07:41:57.988Z,305
2017-08-13T07:43:08.044Z,315
2017-08-13T07:44:18.544Z,330
2017-08-13T07:45:29.123Z,350
2017-08-13T07:46:40.128Z,380
2017-08-13T07:47:50.631Z,405
2017-08-13T07:49:01.122Z,415
2017-08-13T07:50:12.591Z,385
2017-08-13T07:51:23.087Z,405
2017-08-13T07:52:33.896Z,365
2017-08-13T07:53:44.559Z,400
2017-08-13T07:54:55.016Z,455
2017-08-13T07:56:05.218Z,485
2017-08-13T07:57:15.897Z,440
2017-08-13T07:58:26.660Z,345
2017-08-13T07:59:37.159Z,300
2017-08-13T08:00:47.735Z,370
2017-08-13T08:01:57.891Z,355
2017-08-13T08:03:08.082Z,360
2017-08-13T08:04:18.960Z,410
2017-08-13T08:05:29.196Z,370
2017-08-13T08:06:39.250Z,400
2017-08-13T08:07:49.928Z,405
2017-08-13T08:09:00.417Z,420
2017-08-13T08:10:11.137Z,435
2017-08-13T08:11:21.809Z,450
2017-08-13T08:12:31.992Z,440
2017-08-13T08:13:42.456Z,465
2017-08-13T08:14:52.985Z,495
2017-08-13T08:16:03.893Z,445
2017-08-13T08:17:14.042Z,505
2017-08-13T08:18:24.054Z,485
2017-08-13T08:19:34.544Z,490
2017-08-13T08:20:45.241Z,530
2017-08-13T08:21:55.543Z,610
2017-08-13T08:23:05.606Z,690
2017-08-13T08:24:16.135Z,735
2017-08-13T08:25:26.604Z,770
2017-08-13T08:26:36.757Z,825
2017-08-13T08:27:47.486Z,870
2017-08-13T08:28:57.952Z,885
2017-08-13T08:30:07.878Z,935
2017-08-13T08:31:18.037Z,985
2017-08-13T08:32:28.186Z,1000
2017-08-13T08:33:38.971Z,980
2017-08-13T08:34:49.442Z,1090
2017-08-13T08:35:59.953Z,1085
2017-08-13T08:37:10.469Z,1065
2017-08-13T08:38:21.007Z,1180
2017-08-13T08:39:31.437Z,845
2017-08-13T08:40:41.599Z,845
2017-08-13T08:41:51.580Z,810
2017-08-13T08:43:02.078Z,785
2017-08-13T08:44:12.155Z,825
2017-08-13T08:45:22.882Z,840
2017-08-13T08:46:33.398Z,910
2017-08-13T08:47:43.926Z,915
2017-08-13T08:48:54.446Z,845
2017-08-13T08:50:04.939Z,960
2017-08-13T08:51:15.715Z,850
2017-08-13T08:52:26.178Z,840
2017-08-13T08:53:36.750Z,865
2017-08-13T08:54:46.905Z,870
2017-08-13T08:55:57.463Z,940
2017-08-13T08:57:08.266Z,1030
2017-08-13T08:58:18.471Z,930
2017-08-13T08:59:28.929Z,815
2017-08-13T09:00:39.427Z,790
2017-08-13T09:01:49.896Z,765
2017-08-13T09:03:00.640Z,745
2017-08-13T09:04:10.784Z,720
2017-08-13T09:05:21.493Z,705
2017-08-13T09:06:32.050Z,680
2017-08-13T09:07:42.622Z,700
2017-08-13T09:08:53.338Z,735
2017-08-13T09:10:03.831Z,780
2017-08-13T09:11:14.345Z,830
2017-08-13T09:12:24.523Z,935
2017-08-13T09:13:35.238Z,1295
2017-08-13T09:14:45.993Z,1380
2017-08-13T09:15:56.627Z,1080
2017-08-13T09:17:07.089Z,1095
2017-08-13T09:18:17.653Z,1335
2017-08-13T09:19:28.107Z,1435
2017-08-13T09:20:38.966Z,1500
2017-08-13T09:21:49.429Z,1515
2017-08-13T09:22:59.942Z,2195
2017-08-13T09:24:10.150Z,3245
2017-08-13T09:25:20.625Z,1665
2017-08-13T09:26:31.073Z,1145
2017-08-13T09:27:41.562Z,1140
2017-08-13T09:28:51.744Z,1960
2017-08-13T09:30:02.239Z,2060
2017-08-13T09:31:12.747Z,1385
2017-08-13T09:32:23.050Z,1265
2017-08-13T09:33:33.546Z,1555
2017-08-13T09:34:44.020Z,1405
2017-08-13T09:35:54.498Z,1305
2017-08-13T09:37:05.076Z,1895
2017-08-13T09:38:15.825Z,1305
2017-08-13T09:39:25.991Z,1000
2017-08-13T09:40:36.517Z,860
2017-08-13T09:41:47.061Z,740
2017-08-13T09:42:57.594Z,575
2017-08-13T09:44:08.335Z,625
2017-08-13T09:45:18.833Z,695
2017-08-13T09:46:29.358Z,715
2017-08-13T09:47:39.683Z,800
2017-08-13T09:48:49.445Z,850
2017-08-13T09:50:00.493Z,2805
2017-08-13T09:51:10.953Z,3680
2017-08-13T09:52:21.228Z,3915
2017-08-13T09:53:31.717Z,1180
2017-08-13T09:54:42.122Z,1265
2017-08-13T09:55:52.855Z,1420
2017-08-13T09:57:03.177Z,1170
2017-08-13T09:58:13.329Z,985
2017-08-13T09:59:23.803Z,970
2017-08-13T10:00:34.300Z,935
2017-08-13T10:01:46.058Z,920
2017-08-13T10:02:57.216Z,935
2017-08-13T10:04:07.704Z,905
2017-08-13T10:05:18.207Z,910
2017-08-13T10:06:28.902Z,860
2017-08-13T10:07:39.684Z,950
2017-08-13T10:08:51.144Z,1805
2017-08-13T10:10:01.640Z,1105
2017-08-13T10:11:12.299Z,1920
2017-08-13T10:12:22.919Z,1295
2017-08-13T10:13:33.652Z,2580
2017-08-13T10:14:43.678Z,2615
2017-08-13T10:15:54.150Z,1110
2017-08-13T10:17:04.747Z,1175
2017-08-13T10:18:15.349Z,1525
2017-08-13T10:19:26.181Z,1020
2017-08-13T10:20:37.286Z,920
2017-08-13T10:21:47.922Z,795
2017-08-13T10:22:58.395Z,745
2017-08-13T10:24:08.695Z,705
2017-08-13T10:25:19.449Z,755
2017-08-13T10:26:30.256Z,745
2017-08-13T10:27:40.965Z,705
2017-08-13T10:28:51.444Z,775
2017-08-13T10:30:01.952Z,810
2017-08-13T10:31:12.489Z,910
2017-08-13T10:32:22.986Z,925
2017-08-13T10:33:33.510Z,2075
2017-08-13T10:34:44.037Z,1145
2017-08-13T10:35:54.794Z,950
2017-08-13T10:37:05.562Z,955
2017-08-13T10:38:16.221Z,970
2017-08-13T10:39:26.424Z,795
2017-08-13T10:40:37.066Z,705
2017-08-13T10:41:47.572Z,635
2017-08-13T10:42:58.382Z,620
2017-08-13T10:44:08.910Z,595
2017-08-13T10:45:19.499Z,540
2017-08-13T10:46:29.761Z,510
2017-08-13T10:47:39.949Z,440
2017-08-13T10:48:50.493Z,405
2017-08-13T10:50:01.045Z,450
2017-08-13T10:51:11.613Z,505
2017-08-13T10:52:21.872Z,535
2017-08-13T10:53:32.422Z,560
2017-08-13T10:54:43.262Z,615
2017-08-13T10:55:53.845Z,820
2017-08-13T10:57:04.381Z,4585
2017-08-13T10:58:14.925Z,4750
2017-08-13T10:59:25.553Z,4645
2017-08-13T11:00:36.364Z,4320
2017-08-13T11:01:47.003Z,4090
2017-08-13T11:02:57.635Z,1865
2017-08-13T11:04:08.211Z,1265
2017-08-13T11:05:18.799Z,1475
2017-08-13T11:06:29.618Z,1975
2017-08-13T11:07:40.104Z,4120
2017-08-13T11:08:50.735Z,1075
2017-08-13T11:10:01.354Z,1010
2017-08-13T11:11:11.945Z,945
2017-08-13T11:12:22.859Z,970
2017-08-13T11:13:33.500Z,1230
2017-08-13T11:14:44.385Z,925
2017-08-13T11:15:54.921Z,980
2017-08-13T11:17:05.487Z,720
2017-08-13T11:18:16.449Z,615
2017-08-13T11:19:27.001Z,610
2017-08-13T11:20:37.536Z,630
2017-08-13T11:21:49.037Z,590
2017-08-13T11:22:59.803Z,490
2017-08-13T11:24:10.597Z,395
2017-08-13T11:25:21.181Z,330
2017-08-13T11:26:32.746Z,295
2017-08-13T11:27:43.488Z,285
2017-08-13T11:28:54.032Z,280
2017-08-13T11:30:04.919Z,310
2017-08-13T11:31:15.637Z,350
2017-08-13T11:32:26.243Z,375
2017-08-13T11:33:37.060Z,370
2017-08-13T11:34:47.613Z,355
2017-08-13T11:35:58.597Z,365
2017-08-13T11:37:09.230Z,385
2017-08-13T11:38:19.560Z,410
2017-08-13T11:39:30.168Z,390
2017-08-13T11:40:40.694Z,385
2017-08-13T11:41:51.641Z,405
2017-08-13T11:43:01.842Z,415
2017-08-13T11:44:12.355Z,385
2017-08-13T11:45:22.868Z,430
2017-08-13T11:46:33.419Z,500
2017-08-13T11:47:45.287Z,530
2017-08-13T11:48:55.915Z,540
2017-08-13T11:50:06.402Z,515
2017-08-13T11:51:16.625Z,940
2017-08-13T11:52:27.185Z,4105
2017-08-13T11:53:37.903Z,4160
2017-08-13T11:54:48.105Z,4065
2017-08-13T11:55:58.853Z,3985
2017-08-13T11:57:09.341Z,3825
2017-08-13T11:58:19.883Z,3755
2017-08-13T11:59:30.194Z,3825
2017-08-13T12:00:41.296Z,3970
2017-08-13T12:01:51.801Z,4090
2017-08-13T12:03:02.372Z,2610
2017-08-13T12:04:12.922Z,985
2017-08-13T12:05:23.374Z,2555
2017-08-13T12:06:33.925Z,1435
2017-08-13T12:07:44.412Z,4220
2017-08-13T12:08:54.902Z,4265
2017-08-13T12:10:05.410Z,4275
2017-08-13T12:11:16.201Z,4035
2017-08-13T12:12:26.480Z,3855
2017-08-13T12:13:36.882Z,3730
2017-08-13T12:14:47.031Z,3760
2017-08-13T12:15:57.543Z,3630
2017-08-13T12:17:08.540Z,3505
2017-08-13T12:18:19.123Z,3310
2017-08-13T12:19:29.651Z,3205
2017-08-13T12:20:40.247Z,3175
2017-08-13T12:21:50.780Z,3110
2017-08-13T12:23:01.585Z,3105
2017-08-13T12:24:12.222Z,3150
2017-08-13T12:25:22.711Z,3220
2017-08-13T12:26:33.307Z,3420
2017-08-13T12:27:43.838Z,3635
2017-08-13T12:28:54.780Z,3710
2017-08-13T12:30:05.336Z,3470
2017-08-13T12:31:16.107Z,3345
2017-08-13T12:32:26.648Z,3360
2017-08-13T12:33:37.451Z,3650
2017-08-13T12:34:48.251Z,4065
2017-08-13T12:35:58.827Z,1090
2017-08-13T12:37:09.355Z,1110
2017-08-13T12:38:19.868Z,810
2017-08-13T12:39:30.387Z,755
2017-08-13T12:40:41.480Z,600
2017-08-13T12:41:52.056Z,515
2017-08-13T12:43:02.628Z,480
2017-08-13T12:44:13.270Z,430
2017-08-13T12:45:23.811Z,400
2017-08-13T12:46:34.682Z,360
2017-08-13T12:47:45.193Z,325
2017-08-13T12:48:55.877Z,320
2017-08-13T12:50:06.402Z,320
2017-08-13T12:51:16.891Z,315
2017-08-13T12:52:28.701Z,305
2017-08-13T12:53:39.483Z,310
2017-08-13T12:54:50.007Z,330
2017-08-13T12:56:00.514Z,355
2017-08-13T12:57:10.990Z,365
2017-08-13T12:58:21.881Z,355
2017-08-13T12:59:32.395Z,360
2017-08-13T13:00:42.901Z,385
2017-08-13T13:01:53.162Z,475
2017-08-13T13:03:03.767Z,580
2017-08-13T13:04:14.516Z,655
2017-08-13T13:05:24.692Z,745
2017-08-13T13:06:35.242Z,735
2017-08-13T13:07:45.721Z,770
2017-08-13T13:08:56.277Z,690
2017-08-13T13:10:07.124Z,620
2017-08-13T13:11:17.637Z,540
2017-08-13T13:12:27.676Z,510
2017-08-13T13:13:38.155Z,515
2017-08-13T13:14:49.636Z,520
2017-08-13T13:16:00.499Z,525
2017-08-13T13:17:10.994Z,510
2017-08-13T13:18:21.744Z,500
2017-08-13T13:19:31.807Z,895
2017-08-13T13:20:42.367Z,2920
2017-08-13T13:21:53.134Z,1685
2017-08-13T13:23:03.679Z,910
2017-08-13T13:24:13.877Z,1555
2017-08-13T13:25:24.371Z,900
2017-08-13T13:26:34.536Z,715
2017-08-13T13:27:45.413Z,695
2017-08-13T13:28:55.602Z,640
2017-08-13T13:30:06.156Z,585
2017-08-13T13:31:16.698Z,545
2017-08-13T13:32:27.309Z,505
2017-08-13T13:33:38.081Z,485
2017-08-13T13:34:48.563Z,445
2017-08-13T13:35:59.230Z,400
2017-08-13T13:37:09.792Z,365
2017-08-13T13:38:20.293Z,365
2017-08-13T13:39:31.041Z,390
2017-08-13T13:40:42.541Z,430
2017-08-13T13:41:53.072Z,485
2017-08-13T13:43:03.554Z,515
2017-08-13T13:44:14.081Z,540
2017-08-13T13:45:24.842Z,525
2017-08-13T13:46:35.451Z,485
2017-08-13T13:47:45.969Z,455
2017-08-13T13:48:56.485Z,425
2017-08-13T13:50:07.002Z,410
2017-08-13T13:51:17.932Z,405
2017-08-13T13:52:28.420Z,390
2017-08-13T13:53:38.919Z,400
2017-08-13T13:54:49.497Z,420
2017-08-13T13:55:59.968Z,490
2017-08-13T13:57:10.247Z,550
2017-08-13T13:58:20.734Z,615
2017-08-13T13:59:31.473Z,630
2017-08-13T14:00:42.140Z,540
2017-08-13T14:01:52.634Z,520
2017-08-13T14:03:03.367Z,2665
2017-08-13T14:04:13.879Z,2765
2017-08-13T14:05:24.425Z,2615
2017-08-13T14:06:34.898Z,2390
2017-08-13T14:07:45.419Z,2425
2017-08-13T14:08:56.154Z,2730
2017-08-13T14:10:06.663Z,2990
2017-08-13T14:11:17.192Z,2870
2017-08-13T14:12:27.798Z,2670
2017-08-13T14:13:38.351Z,2490
2017-08-13T14:14:49.132Z,2450
2017-08-13T14:15:59.375Z,2545
2017-08-13T14:17:10.076Z,2645
2017-08-13T14:18:20.619Z,2615
2017-08-13T14:19:31.143Z,2605
2017-08-13T14:20:43.061Z,2715
2017-08-13T14:21:53.587Z,2805
2017-08-13T14:23:04.191Z,2845
2017-08-13T14:24:14.772Z,2885
2017-08-13T14:25:24.977Z,2975
2017-08-13T14:26:35.774Z,2950
2017-08-13T14:27:45.918Z,565
2017-08-13T14:28:56.915Z,495
2017-08-13T14:30:07.748Z,415
2017-08-13T14:31:18.258Z,380
2017-08-13T14:32:28.562Z,330
2017-08-13T14:33:38.645Z,315
2017-08-13T14:34:49.286Z,305
2017-08-13T14:35:59.571Z,290
2017-08-13T14:37:11.423Z,260
2017-08-13T14:38:22.207Z,235
2017-08-13T14:39:32.431Z,210
2017-08-13T14:40:43.045Z,185
2017-08-13T14:41:53.542Z,160
2017-08-13T14:43:04.035Z,145
2017-08-13T14:44:14.905Z,130
2017-08-13T14:45:25.426Z,120
2017-08-13T14:46:35.927Z,115
2017-08-13T14:47:46.441Z,105
2017-08-13T14:48:56.941Z,105
2017-08-13T14:50:07.661Z,115
2017-08-13T14:51:17.862Z,135
2017-08-13T14:52:28.386Z,145
2017-08-13T14:53:38.915Z,150
2017-08-13T14:54:49.447Z,150
2017-08-13T14:55:59.873Z,145
2017-08-13T14:57:10.376Z,140
2017-08-13T14:58:20.650Z,140
2017-08-13T14:59:31.834Z,135
2017-08-13T15:00:42.049Z,135
2017-08-13T15:01:52.806Z,140
2017-08-13T15:03:03.448Z,135
2017-08-13T15:04:13.694Z,130
2017-08-13T15:05:24.288Z,130
2017-08-13T15:06:34.501Z,130
2017-08-13T15:07:45.308Z,140
2017-08-13T15:08:55.185Z,150
2017-08-13T15:10:05.715Z,155
2017-08-13T15:11:16.241Z,165
2017-08-13T15:12:26.443Z,170
2017-08-13T15:13:37.302Z,170
2017-08-13T15:14:47.808Z,175
2017-08-13T15:15:58.195Z,180
2017-08-13T15:17:08.983Z,195
2017-08-13T15:18:19.183Z,205
2017-08-13T15:19:29.980Z,215
2017-08-13T15:20:40.493Z,230
2017-08-13T15:21:51.098Z,250
2017-08-13T15:23:01.174Z,270
2017-08-13T15:24:11.740Z,315
2017-08-13T15:25:22.173Z,320
2017-08-13T15:26:32.756Z,330
2017-08-13T15:27:43.294Z,355
2017-08-13T15:28:53.784Z,385
2017-08-13T15:30:04.322Z,415
2017-08-13T15:31:15.086Z,430
2017-08-13T15:32:25.859Z,430
2017-08-13T15:33:36.144Z,425
2017-08-13T15:34:46.735Z,420
2017-08-13T15:35:56.884Z,405
2017-08-13T15:37:07.737Z,390
2017-08-13T15:38:18.307Z,380
2017-08-13T15:39:28.509Z,360
2017-08-13T15:40:38.292Z,345
2017-08-13T15:41:48.836Z,325
2017-08-13T15:42:59.682Z,315
2017-08-13T15:44:10.176Z,290
2017-08-13T15:45:20.776Z,265
2017-08-13T15:46:31.506Z,250
2017-08-13T15:47:41.791Z,230
2017-08-13T15:48:52.551Z,215
2017-08-13T15:50:03.115Z,205
2017-08-13T15:51:13.695Z,195
2017-08-13T15:52:24.232Z,185
2017-08-13T15:53:34.393Z,175
2017-08-13T15:54:45.136Z,155
2017-08-13T15:55:55.653Z,140
2017-08-13T15:57:06.136Z,130
2017-08-13T15:58:16.643Z,125
2017-08-13T15:59:27.212Z,125
2017-08-13T16:00:38.028Z,125
2017-08-13T16:01:48.531Z,120
2017-08-13T16:02:59.016Z,120
2017-08-13T16:04:09.572Z,120
2017-08-13T16:05:20.110Z,120
2017-08-13T16:06:30.882Z,115
2017-08-13T16:07:41.638Z,110
2017-08-13T16:08:52.172Z,115
2017-08-13T16:10:02.865Z,115
2017-08-13T16:11:13.371Z,110
2017-08-13T16:12:24.159Z,110
2017-08-13T16:13:34.670Z,105
2017-08-13T16:14:44.715Z,105
2017-08-13T16:15:55.264Z,105
2017-08-13T16:17:05.755Z,105
2017-08-13T16:18:16.767Z,110
2017-08-13T16:19:27.265Z,115
2017-08-13T16:20:37.570Z,115
2017-08-13T16:21:48.078Z,115
2017-08-13T16:22:58.659Z,115
2017-08-13T16:24:09.480Z,115
2017-08-13T16:25:20.023Z,115